createdAt,value
2023-04-28T00:00:04.712Z,3.20
2023-04-28T00:01:05.606Z,3.40
2023-04-28T00:02:06.610Z,3.20
2023-04-28T00:03:07.579Z,3.70
2023-04-28T00:04:08.458Z,3.40
2023-04-28T00:05:08.691Z,3.60
2023-04-28T00:06:09.130Z,3.30
2023-04-28T00:07:10.050Z,3.30
2023-04-28T00:08:10.975Z,3.40
2023-04-28T00:09:11.867Z,3.40
2023-04-28T00:10:12.755Z,3.70
2023-04-28T00:11:13.666Z,3.30
2023-04-28T00:12:14.556Z,3.30
2023-04-28T00:13:15.507Z,3.30
2023-04-28T00:14:16.738Z,3.50
2023-04-28T00:15:17.338Z,3.50
2023-04-28T00:16:18.301Z,3.70
2023-04-28T00:17:19.269Z,3.50
2023-04-28T00:18:20.212Z,3.40
2023-04-28T00:19:21.109Z,3.30
2023-04-28T00:20:22.085Z,4.20
2023-04-28T00:21:23.040Z,3.30
2023-04-28T00:22:23.911Z,3.50
2023-04-28T00:23:24.807Z,3.60
2023-04-28T00:24:25.731Z,3.60
2023-04-28T00:25:26.674Z,3.70
2023-04-28T00:26:27.606Z,3.40
2023-04-28T00:27:28.499Z,3.20
2023-04-28T00:29:30.248Z,3.60
2023-04-28T00:30:31.136Z,3.50
2023-04-28T00:31:32.190Z,3.70
2023-04-28T00:32:32.613Z,3.50
2023-04-28T00:33:33.497Z,3.80
2023-04-28T00:34:34.382Z,3.80
2023-04-28T00:35:35.311Z,3.70
2023-04-28T00:36:36.242Z,3.70
2023-04-28T00:37:37.184Z,3.50
2023-04-28T00:38:37.645Z,3.90
2023-04-28T00:39:38.560Z,3.50
2023-04-28T00:40:39.469Z,3.90
2023-04-28T00:41:40.388Z,3.70
2023-04-28T00:42:41.308Z,4.00
2023-04-28T00:43:42.211Z,4.00
2023-04-28T00:44:43.147Z,3.70
2023-04-28T00:45:44.181Z,3.70
2023-04-28T00:46:45.101Z,3.30
2023-04-28T00:47:46.034Z,3.60
2023-04-28T00:48:46.923Z,3.60
2023-04-28T00:49:47.828Z,3.60
2023-04-28T00:50:48.733Z,3.80
2023-04-28T00:51:49.640Z,3.80
2023-04-28T00:52:50.583Z,3.60
2023-04-28T00:53:51.465Z,4.10
2023-04-28T00:54:52.334Z,3.70
2023-04-28T00:55:53.220Z,3.50
2023-04-28T00:56:54.245Z,3.70
2023-04-28T00:57:54.688Z,3.80
2023-04-28T00:58:55.604Z,3.50
2023-04-28T00:59:56.480Z,3.90
2023-04-28T01:00:57.769Z,3.90
2023-04-28T01:01:58.149Z,3.80
2023-04-28T01:02:59.250Z,3.70
2023-04-28T01:03:59.978Z,3.90
2023-04-28T01:05:00.410Z,3.60
2023-04-28T01:06:01.352Z,3.50
2023-04-28T01:07:02.305Z,3.70
2023-04-28T01:08:03.238Z,3.60
2023-04-28T01:09:04.084Z,4.10
2023-04-28T01:10:04.990Z,3.70
2023-04-28T01:11:05.901Z,3.70
2023-04-28T01:12:06.807Z,3.90
2023-04-28T01:13:07.727Z,3.40
2023-04-28T01:14:08.611Z,3.70
2023-04-28T01:15:09.514Z,3.70
2023-04-28T01:16:10.486Z,4.50
2023-04-28T01:17:11.359Z,3.80
2023-04-28T01:18:12.374Z,3.40
2023-04-28T01:19:14.094Z,3.40
2023-04-28T01:20:13.973Z,4.00
2023-04-28T01:21:14.883Z,3.30
2023-04-28T01:22:15.809Z,3.90
2023-04-28T01:23:16.342Z,3.50
2023-04-28T01:24:17.613Z,3.80
2023-04-28T01:25:18.162Z,4.50
2023-04-28T01:26:19.086Z,3.50
2023-04-28T01:27:20.001Z,3.90
2023-04-28T01:28:20.913Z,4.10
2023-04-28T01:29:21.827Z,3.60
2023-04-28T01:30:22.768Z,4.10
2023-04-28T01:31:23.777Z,4.10
2023-04-28T01:32:24.659Z,3.80
2023-04-28T01:33:25.537Z,3.70
2023-04-28T01:34:26.432Z,3.80
2023-04-28T01:35:27.299Z,3.50
2023-04-28T01:36:28.292Z,3.90
2023-04-28T01:37:29.239Z,3.80
2023-04-28T01:38:29.671Z,4.00
2023-04-28T01:39:30.558Z,3.80
2023-04-28T01:40:31.457Z,4.00
2023-04-28T01:41:32.371Z,3.90
2023-04-28T01:42:33.236Z,3.50
2023-04-28T01:43:34.119Z,4.00
2023-04-28T01:44:35.043Z,4.00
2023-04-28T01:45:35.958Z,3.60
2023-04-28T01:46:37.214Z,3.70
2023-04-28T01:47:37.724Z,3.90
2023-04-28T01:48:38.600Z,3.80
2023-04-28T01:49:39.508Z,3.60
2023-04-28T01:50:40.378Z,3.60
2023-04-28T01:51:41.332Z,4.00
2023-04-28T01:52:42.193Z,4.10
2023-04-28T01:53:43.080Z,3.80
2023-04-28T01:54:43.962Z,3.80
2023-04-28T01:55:44.858Z,3.90
2023-04-28T01:56:45.778Z,4.10
2023-04-28T01:57:46.695Z,4.00
2023-04-28T01:58:47.593Z,3.90
2023-04-28T01:59:48.506Z,3.90
2023-04-28T02:00:49.386Z,4.50
2023-04-28T02:01:50.325Z,4.30
2023-04-28T02:02:51.254Z,4.00
2023-04-28T02:03:52.309Z,3.70
2023-04-28T02:04:52.962Z,4.60
2023-04-28T02:05:53.378Z,4.70
2023-04-28T02:06:54.300Z,3.90
2023-04-28T02:07:55.207Z,4.50
2023-04-28T02:08:56.094Z,4.40
2023-04-28T02:09:56.979Z,3.90
2023-04-28T02:10:57.955Z,3.90
2023-04-28T02:11:58.830Z,4.70
2023-04-28T02:12:59.739Z,4.00
2023-04-28T02:14:00.620Z,4.10
2023-04-28T02:15:01.521Z,4.30
2023-04-28T02:16:02.529Z,4.10
2023-04-28T02:17:03.023Z,4.10
2023-04-28T02:18:03.968Z,4.00
2023-04-28T02:19:04.411Z,4.50
2023-04-28T02:20:05.329Z,4.00
2023-04-28T02:21:06.264Z,4.60
2023-04-28T02:22:07.159Z,4.50
2023-04-28T02:23:08.032Z,4.00
2023-04-28T02:24:08.910Z,4.20
2023-04-28T02:25:09.866Z,4.10
2023-04-28T02:26:10.322Z,4.10
2023-04-28T02:27:11.200Z,3.90
2023-04-28T02:28:12.095Z,4.10
2023-04-28T02:29:12.984Z,4.30
2023-04-28T02:30:13.871Z,4.00
2023-04-28T02:31:14.854Z,4.10
2023-04-28T02:32:15.703Z,4.20
2023-04-28T02:33:16.620Z,4.20
2023-04-28T02:34:17.670Z,4.30
2023-04-28T02:35:18.145Z,4.20
2023-04-28T02:36:19.034Z,4.00
2023-04-28T02:37:20.003Z,4.10
2023-04-28T02:38:20.861Z,4.10
2023-04-28T02:39:21.759Z,4.60
2023-04-28T02:40:22.657Z,4.00
2023-04-28T02:41:23.580Z,4.00
2023-04-28T02:42:24.444Z,4.20
2023-04-28T02:43:25.339Z,4.50
2023-04-28T02:44:26.263Z,4.40
2023-04-28T02:45:27.148Z,4.40
2023-04-28T02:46:28.192Z,4.20
2023-04-28T02:47:28.606Z,4.30
2023-04-28T02:48:29.496Z,4.50
2023-04-28T02:49:30.353Z,4.20
2023-04-28T02:50:31.247Z,4.50
2023-04-28T02:51:32.219Z,4.40
2023-04-28T02:52:32.634Z,4.10
2023-04-28T02:53:33.582Z,4.40
2023-04-28T02:54:34.496Z,4.00
2023-04-28T02:55:35.377Z,4.30
2023-04-28T02:56:36.304Z,4.40
2023-04-28T02:57:37.224Z,4.30
2023-04-28T02:58:38.163Z,4.10
2023-04-28T02:59:39.047Z,4.30
2023-04-28T03:00:39.959Z,4.60
2023-04-28T03:01:40.977Z,4.60
2023-04-28T03:02:41.538Z,4.10
2023-04-28T03:03:42.130Z,4.50
2023-04-28T03:04:42.579Z,4.60
2023-04-28T03:05:43.469Z,4.30
2023-04-28T03:06:44.373Z,4.90
2023-04-28T03:07:45.235Z,4.70
2023-04-28T03:08:46.140Z,4.50
2023-04-28T03:09:47.016Z,4.90
2023-04-28T03:10:47.909Z,4.30
2023-04-28T03:11:48.811Z,4.00
2023-04-28T03:12:49.697Z,4.70
2023-04-28T03:13:50.590Z,4.10
2023-04-28T03:14:51.481Z,5.10
2023-04-28T03:15:52.417Z,4.40
2023-04-28T03:16:53.413Z,4.60
2023-04-28T03:17:54.333Z,4.60
2023-04-28T03:18:55.215Z,4.80
2023-04-28T03:19:56.084Z,4.60
2023-04-28T03:20:56.986Z,4.50
2023-04-28T03:21:57.880Z,4.50
2023-04-28T03:22:58.757Z,4.70
2023-04-28T03:23:59.640Z,5.00
2023-04-28T03:25:00.516Z,4.90
2023-04-28T03:26:01.445Z,5.40
2023-04-28T03:27:02.322Z,34.20
2023-04-28T03:28:03.213Z,23.60
2023-04-28T03:29:04.128Z,88.00
2023-04-28T03:30:04.996Z,38.70
2023-04-28T03:31:05.940Z,4.60
2023-04-28T03:32:06.858Z,4.50
2023-04-28T03:33:07.875Z,4.50
2023-04-28T03:34:08.276Z,4.90
2023-04-28T03:35:09.170Z,4.60
2023-04-28T03:36:10.096Z,4.60
2023-04-28T03:37:10.977Z,5.20
2023-04-28T03:38:11.843Z,4.60
2023-04-28T03:39:12.769Z,4.70
2023-04-28T03:40:13.628Z,5.00
2023-04-28T03:41:14.546Z,4.40
2023-04-28T03:42:15.435Z,4.50
2023-04-28T03:43:16.358Z,4.60
2023-04-28T03:44:17.486Z,5.00
2023-04-28T03:45:17.984Z,4.80
2023-04-28T03:46:18.928Z,4.90
2023-04-28T03:47:19.805Z,4.70
2023-04-28T03:48:20.733Z,4.60
2023-04-28T03:49:21.620Z,5.00
2023-04-28T03:50:24.154Z,5.00
2023-04-28T03:51:23.236Z,4.60
2023-04-28T03:52:24.104Z,4.80
2023-04-28T03:53:25.155Z,4.90
2023-04-28T03:54:25.639Z,4.90
2023-04-28T03:55:26.575Z,4.70
2023-04-28T03:56:27.479Z,4.70
2023-04-28T03:57:28.419Z,4.50
2023-04-28T03:58:29.315Z,4.90
2023-04-28T03:59:30.262Z,4.90
2023-04-28T04:00:31.192Z,4.50
2023-04-28T04:01:32.077Z,4.60
2023-04-28T04:02:33.133Z,4.80
2023-04-28T04:03:33.785Z,4.40
2023-04-28T04:04:34.579Z,4.50
2023-04-28T04:05:35.287Z,4.40
2023-04-28T04:06:35.712Z,4.80
2023-04-28T04:07:36.612Z,4.90
2023-04-28T04:08:37.505Z,5.40
2023-04-28T04:09:38.417Z,4.80
2023-04-28T04:10:39.339Z,4.70
2023-04-28T04:11:40.243Z,5.60
2023-04-28T04:12:41.151Z,4.60
2023-04-28T04:13:42.033Z,4.80
2023-04-28T04:14:42.927Z,5.30
2023-04-28T04:15:43.876Z,4.70
2023-04-28T04:16:44.774Z,4.70
2023-04-28T04:17:45.696Z,5.00
2023-04-28T04:18:46.553Z,4.50
2023-04-28T04:19:47.456Z,5.20
2023-04-28T04:20:48.345Z,5.10
2023-04-28T04:21:49.252Z,4.70
2023-04-28T04:22:50.217Z,4.90
2023-04-28T04:23:51.056Z,4.70
2023-04-28T04:24:51.945Z,4.80
2023-04-28T04:25:52.857Z,5.30
2023-04-28T04:26:53.762Z,5.10
2023-04-28T04:27:54.641Z,5.20
2023-04-28T04:28:55.528Z,4.60
2023-04-28T04:29:56.470Z,4.80
2023-04-28T04:30:57.507Z,5.00
2023-04-28T04:31:57.975Z,4.90
2023-04-28T04:32:58.483Z,5.10
2023-04-28T04:33:59.355Z,4.70
2023-04-28T04:35:00.283Z,4.80
2023-04-28T04:36:01.176Z,4.90
2023-04-28T04:37:02.075Z,4.80
2023-04-28T04:38:02.945Z,4.60
2023-04-28T04:39:03.849Z,5.00
2023-04-28T04:40:04.741Z,4.70
2023-04-28T04:41:05.637Z,5.00
2023-04-28T04:42:22.644Z,4.90
2023-04-28T04:43:08.278Z,4.90
2023-04-28T04:44:08.168Z,5.10
2023-04-28T04:45:09.089Z,4.90
2023-04-28T04:46:09.998Z,4.60
2023-04-28T04:47:18.435Z,5.00
2023-04-28T04:48:11.889Z,4.90
2023-04-28T04:49:12.792Z,5.20
2023-04-28T04:50:13.756Z,4.70
2023-04-28T04:51:14.628Z,5.00
2023-04-28T04:52:15.507Z,5.00
2023-04-28T04:53:16.702Z,5.00
2023-04-28T04:54:17.481Z,4.70
2023-04-28T04:55:18.050Z,4.90
2023-04-28T04:56:18.933Z,5.10
2023-04-28T04:57:19.846Z,4.80
2023-04-28T04:58:20.729Z,5.50
2023-04-28T04:59:21.596Z,5.50
2023-04-28T05:00:22.511Z,4.60
2023-04-28T05:01:23.445Z,5.10
2023-04-28T05:02:24.329Z,5.20
2023-04-28T05:03:25.376Z,5.50
2023-04-28T05:04:25.866Z,5.40
2023-04-28T05:05:26.919Z,5.70
2023-04-28T05:06:27.309Z,5.40
2023-04-28T05:07:28.207Z,5.40
2023-04-28T05:08:29.098Z,5.80
2023-04-28T05:09:29.990Z,5.20
2023-04-28T05:10:30.918Z,5.10
2023-04-28T05:11:31.832Z,5.50
2023-04-28T05:12:32.723Z,4.80
2023-04-28T05:13:33.610Z,5.30
2023-04-28T05:14:34.501Z,5.50
2023-04-28T05:15:35.425Z,5.30
2023-04-28T05:16:36.369Z,5.40
2023-04-28T05:17:37.399Z,5.30
2023-04-28T05:18:38.270Z,5.30
2023-04-28T05:19:39.212Z,5.50
2023-04-28T05:20:39.678Z,5.30
2023-04-28T05:21:40.566Z,5.40
2023-04-28T05:22:41.536Z,5.70
2023-04-28T05:23:41.957Z,5.50
2023-04-28T05:24:42.874Z,5.40
2023-04-28T05:25:43.884Z,5.00
2023-04-28T05:26:44.273Z,5.30
2023-04-28T05:27:45.190Z,5.30
2023-04-28T05:28:46.116Z,5.40
2023-04-28T05:29:47.099Z,5.10
2023-04-28T05:30:47.573Z,5.50
2023-04-28T05:31:48.582Z,5.30
2023-04-28T05:32:49.053Z,5.60
2023-04-28T05:33:49.905Z,5.00
2023-04-28T05:34:50.783Z,5.50
2023-04-28T05:35:51.706Z,5.40
2023-04-28T05:36:52.660Z,5.50
2023-04-28T05:37:53.104Z,5.40
2023-04-28T05:38:53.999Z,5.70
2023-04-28T05:39:54.883Z,5.20
2023-04-28T05:40:55.785Z,5.90
2023-04-28T05:41:56.688Z,6.00
2023-04-28T05:42:57.587Z,5.70
2023-04-28T05:43:58.470Z,5.50
2023-04-28T05:44:59.347Z,5.80
2023-04-28T05:46:00.290Z,5.70
2023-04-28T05:47:01.382Z,5.90
2023-04-28T05:48:01.960Z,6.10
2023-04-28T05:49:02.836Z,7.00
2023-04-28T05:50:03.749Z,6.00
2023-04-28T05:51:04.660Z,5.60
2023-04-28T05:52:05.558Z,5.70
2023-04-28T05:53:06.450Z,6.50
2023-04-28T05:54:07.324Z,5.90
2023-04-28T05:55:08.246Z,6.30
2023-04-28T05:56:09.127Z,6.10
2023-04-28T05:57:10.011Z,6.30
2023-04-28T05:58:10.896Z,5.90
2023-04-28T05:59:11.801Z,6.00
2023-04-28T06:00:12.728Z,5.80
2023-04-28T06:01:13.611Z,6.00
2023-04-28T06:02:14.631Z,6.10
2023-04-28T06:03:15.283Z,6.40
2023-04-28T06:04:16.182Z,6.30
2023-04-28T06:05:16.630Z,6.00
2023-04-28T06:06:17.291Z,5.90
2023-04-28T06:07:18.161Z,6.20
2023-04-28T06:08:19.065Z,6.70
2023-04-28T06:09:19.921Z,6.20
2023-04-28T06:10:20.841Z,6.20
2023-04-28T06:11:21.717Z,6.90
2023-04-28T06:12:22.613Z,6.60
2023-04-28T06:13:23.489Z,6.20
2023-04-28T06:14:24.376Z,6.30
2023-04-28T06:15:25.297Z,6.50
2023-04-28T06:16:26.338Z,6.40
2023-04-28T06:17:26.741Z,6.40
2023-04-28T06:18:27.612Z,6.50
2023-04-28T06:19:28.494Z,6.50
2023-04-28T06:20:29.410Z,6.40
2023-04-28T06:21:30.329Z,6.30
2023-04-28T06:22:31.203Z,6.20
2023-04-28T06:23:32.145Z,6.30
2023-04-28T06:24:33.020Z,6.00
2023-04-28T06:25:33.935Z,6.10
2023-04-28T06:26:34.820Z,6.30
2023-04-28T06:27:35.722Z,6.40
2023-04-28T06:28:36.611Z,6.50
2023-04-28T06:29:37.494Z,5.90
2023-04-28T06:30:38.415Z,6.10
2023-04-28T06:31:39.325Z,6.40
2023-04-28T06:32:40.258Z,6.80
2023-04-28T06:33:41.113Z,6.60
2023-04-28T06:34:42.003Z,6.70
2023-04-28T06:35:42.913Z,6.60
2023-04-28T06:36:43.808Z,6.40
2023-04-28T06:37:44.699Z,6.40
2023-04-28T06:38:45.603Z,6.70
2023-04-28T06:39:46.465Z,7.10
2023-04-28T06:40:47.370Z,6.60
2023-04-28T06:41:48.255Z,6.90
2023-04-28T06:42:49.152Z,6.80
2023-04-28T06:43:50.029Z,6.70
2023-04-28T06:44:50.905Z,6.80
2023-04-28T06:45:51.819Z,6.70
2023-04-28T06:46:52.773Z,7.70
2023-04-28T06:47:53.674Z,7.00
2023-04-28T06:48:54.559Z,7.10
2023-04-28T06:49:55.427Z,6.90
2023-04-28T06:50:56.334Z,7.00
2023-04-28T06:51:57.227Z,7.00
2023-04-28T06:52:58.098Z,7.60
2023-04-28T06:53:59.031Z,7.10
2023-04-28T06:54:59.895Z,6.80
2023-04-28T06:56:00.789Z,6.90
2023-04-28T06:57:01.696Z,7.30
2023-04-28T06:58:02.590Z,7.50
2023-04-28T06:59:03.454Z,6.80
2023-04-28T07:00:04.388Z,7.20
2023-04-28T07:01:05.308Z,7.90
2023-04-28T07:02:06.249Z,7.70
2023-04-28T07:03:07.203Z,7.10
2023-04-28T07:04:07.659Z,6.90
2023-04-28T07:05:08.599Z,7.20
2023-04-28T07:06:09.473Z,7.40
2023-04-28T07:07:10.372Z,7.90
2023-04-28T07:08:11.264Z,7.80
2023-04-28T07:09:12.158Z,8.50
2023-04-28T07:10:13.056Z,7.70
2023-04-28T07:11:13.937Z,7.30
2023-04-28T07:12:14.840Z,8.20
2023-04-28T07:13:16.089Z,7.60
2023-04-28T07:14:16.651Z,7.40
2023-04-28T07:15:17.240Z,8.20
2023-04-28T07:16:18.395Z,7.20
2023-04-28T07:17:18.765Z,7.60
2023-04-28T07:18:19.726Z,7.00
2023-04-28T07:19:20.625Z,7.80
2023-04-28T07:20:21.580Z,7.70
2023-04-28T07:21:22.429Z,7.30
2023-04-28T07:22:23.323Z,7.10
2023-04-28T07:23:24.212Z,7.30
2023-04-28T07:24:25.127Z,7.40
2023-04-28T07:25:26.031Z,7.00
2023-04-28T07:26:26.928Z,7.50
2023-04-28T07:27:27.820Z,7.70
2023-04-28T07:28:28.704Z,7.00
2023-04-28T07:29:29.589Z,7.70
2023-04-28T07:30:30.554Z,7.10
2023-04-28T07:31:31.424Z,7.60
2023-04-28T07:32:32.335Z,7.10
2023-04-28T07:33:33.267Z,7.20
2023-04-28T07:34:34.148Z,6.80
2023-04-28T07:35:35.064Z,7.00
2023-04-28T07:36:35.944Z,7.60
2023-04-28T07:37:36.821Z,7.20
2023-04-28T07:38:37.715Z,7.30
2023-04-28T07:39:38.668Z,7.60
2023-04-28T07:40:39.568Z,7.60
2023-04-28T07:41:40.467Z,7.10
2023-04-28T07:42:41.356Z,7.00
2023-04-28T07:43:42.243Z,7.60
2023-04-28T07:44:43.122Z,7.40
2023-04-28T07:45:44.070Z,7.50
2023-04-28T07:46:44.932Z,7.10
2023-04-28T07:47:45.899Z,7.20
2023-04-28T07:48:46.771Z,7.50
2023-04-28T07:49:47.673Z,7.20
2023-04-28T07:50:48.567Z,7.20
2023-04-28T07:51:49.460Z,7.30
2023-04-28T07:52:50.353Z,7.30
2023-04-28T07:53:51.245Z,7.60
2023-04-28T07:54:52.169Z,7.20
2023-04-28T07:55:53.042Z,7.30
2023-04-28T07:56:53.938Z,8.10
2023-04-28T07:57:54.831Z,8.10
2023-04-28T07:58:55.713Z,7.80
2023-04-28T07:59:56.608Z,7.20
2023-04-28T08:00:57.506Z,7.50
2023-04-28T08:01:58.426Z,7.50
2023-04-28T08:02:59.505Z,7.70
2023-04-28T08:04:00.352Z,7.30
2023-04-28T08:05:01.446Z,7.30
2023-04-28T08:06:02.154Z,7.40
2023-04-28T08:07:02.567Z,7.10
2023-04-28T08:08:03.448Z,7.30
2023-04-28T08:09:04.348Z,7.10
2023-04-28T08:10:05.289Z,7.70
2023-04-28T08:11:06.156Z,7.60
2023-04-28T08:12:07.028Z,7.70
2023-04-28T08:13:07.922Z,7.00
2023-04-28T08:14:08.823Z,7.60
2023-04-28T08:15:09.738Z,6.50
2023-04-28T08:16:10.685Z,7.00
2023-04-28T08:17:11.559Z,7.50
2023-04-28T08:18:12.455Z,7.70
2023-04-28T08:19:13.396Z,7.10
2023-04-28T08:20:14.291Z,7.50
2023-04-28T08:21:15.189Z,7.30
2023-04-28T08:22:16.082Z,7.30
2023-04-28T08:23:16.965Z,7.40
2023-04-28T08:24:18.085Z,7.30
2023-04-28T08:25:18.711Z,7.50
2023-04-28T08:26:19.589Z,7.30
2023-04-28T08:27:20.474Z,7.90
2023-04-28T08:28:21.378Z,7.20
2023-04-28T08:29:22.283Z,7.50
2023-04-28T08:30:23.190Z,7.80
2023-04-28T08:31:24.176Z,7.40
2023-04-28T08:32:24.603Z,7.30
2023-04-28T08:33:25.485Z,7.60
2023-04-28T08:34:26.391Z,8.00
2023-04-28T08:35:27.286Z,8.70
2023-04-28T08:36:28.164Z,7.10
2023-04-28T08:37:29.061Z,8.00
2023-04-28T08:38:29.946Z,8.20
2023-04-28T08:39:30.863Z,7.70
2023-04-28T08:40:31.764Z,8.10
2023-04-28T08:41:32.642Z,7.60
2023-04-28T08:42:33.515Z,8.00
2023-04-28T08:43:34.401Z,8.90
2023-04-28T08:44:35.317Z,8.30
2023-04-28T08:45:36.204Z,8.00
2023-04-28T08:46:37.147Z,8.30
2023-04-28T08:47:38.165Z,8.90
2023-04-28T08:48:38.585Z,8.10
2023-04-28T08:49:39.535Z,8.50
2023-04-28T08:50:40.408Z,8.10
2023-04-28T08:51:42.205Z,8.40
2023-04-28T08:52:42.099Z,9.00
2023-04-28T08:53:59.366Z,8.50
2023-04-28T08:54:44.769Z,8.30
2023-04-28T08:55:44.694Z,7.80
2023-04-28T08:56:45.579Z,8.10
2023-04-28T08:57:46.453Z,8.70
2023-04-28T08:58:47.340Z,8.10
2023-04-28T08:59:48.248Z,8.30
2023-04-28T09:00:49.142Z,8.30
2023-04-28T09:01:50.109Z,8.20
2023-04-28T09:02:50.636Z,8.70
2023-04-28T09:03:51.633Z,7.70
2023-04-28T09:04:52.351Z,8.00
2023-04-28T09:05:52.897Z,8.50
2023-04-28T09:06:53.767Z,7.90
2023-04-28T09:07:54.727Z,8.00
2023-04-28T09:08:55.634Z,8.40
2023-04-28T09:09:56.537Z,9.00
2023-04-28T09:10:57.587Z,8.40
2023-04-28T09:11:58.440Z,7.90
2023-04-28T09:12:59.330Z,8.20
2023-04-28T09:14:00.231Z,8.80
2023-04-28T09:15:01.143Z,8.00
2023-04-28T09:16:02.073Z,8.20
2023-04-28T09:17:03.034Z,8.80
2023-04-28T09:18:04.103Z,8.60
2023-04-28T09:19:04.503Z,8.20
2023-04-28T09:20:05.395Z,8.20
2023-04-28T09:21:06.302Z,8.70
2023-04-28T09:22:17.525Z,8.00
2023-04-28T09:23:08.939Z,8.20
2023-04-28T09:24:08.836Z,8.70
2023-04-28T09:25:09.761Z,8.20
2023-04-28T09:26:10.664Z,8.40
2023-04-28T09:27:11.530Z,8.50
2023-04-28T09:28:12.416Z,8.00
2023-04-28T09:29:13.300Z,9.00
2023-04-28T09:30:14.204Z,8.50
2023-04-28T09:31:15.088Z,8.50
2023-04-28T09:32:16.119Z,8.40
2023-04-28T09:33:16.630Z,8.20
2023-04-28T09:34:17.294Z,8.10
2023-04-28T09:35:17.918Z,7.90
2023-04-28T09:36:18.836Z,9.00
2023-04-28T09:37:19.701Z,8.40
2023-04-28T09:38:20.595Z,8.60
2023-04-28T09:39:21.474Z,8.50
2023-04-28T09:40:22.396Z,8.90
2023-04-28T09:41:23.315Z,8.80
2023-04-28T09:42:24.186Z,8.20
2023-04-28T09:43:25.095Z,8.20
2023-04-28T09:44:25.970Z,8.70
2023-04-28T09:45:28.170Z,8.60
2023-04-28T09:46:27.640Z,8.10
2023-04-28T09:47:28.586Z,8.30
2023-04-28T09:48:29.437Z,8.30
2023-04-28T09:49:30.326Z,8.30
2023-04-28T09:50:31.244Z,7.90
2023-04-28T09:51:32.135Z,8.40
2023-04-28T09:52:33.011Z,7.90
2023-04-28T09:53:33.892Z,7.80
2023-04-28T09:54:34.793Z,7.90
2023-04-28T09:55:35.690Z,7.90
2023-04-28T09:56:36.640Z,7.40
2023-04-28T09:57:37.536Z,7.20
2023-04-28T09:58:38.421Z,8.20
2023-04-28T09:59:39.322Z,7.60
2023-04-28T10:00:40.235Z,8.00
2023-04-28T10:01:41.179Z,8.00
2023-04-28T10:02:43.656Z,7.80
2023-04-28T10:03:43.346Z,7.10
2023-04-28T10:04:44.015Z,7.80
2023-04-28T10:05:44.512Z,7.80
2023-04-28T10:06:45.408Z,7.50
2023-04-28T10:07:46.288Z,7.80
2023-04-28T10:08:47.178Z,7.30
2023-04-28T10:09:48.069Z,6.90
2023-04-28T10:10:48.980Z,7.60
2023-04-28T10:11:49.904Z,7.70
2023-04-28T10:12:50.805Z,7.70
2023-04-28T10:13:51.754Z,7.50
2023-04-28T10:14:52.612Z,7.80
2023-04-28T10:15:53.575Z,7.70
2023-04-28T10:16:54.472Z,7.50
2023-04-28T10:17:55.433Z,8.00
2023-04-28T10:18:56.294Z,7.70
2023-04-28T10:19:57.239Z,7.60
2023-04-28T10:20:58.117Z,7.30
2023-04-28T10:21:58.989Z,7.60
2023-04-28T10:22:59.902Z,7.10
2023-04-28T10:24:00.786Z,7.20
2023-04-28T10:25:01.706Z,7.10
2023-04-28T10:26:02.613Z,7.00
2023-04-28T10:27:03.532Z,7.20
2023-04-28T10:28:04.381Z,6.70
2023-04-28T10:29:05.271Z,7.50
2023-04-28T10:30:13.025Z,7.40
2023-04-28T10:31:08.013Z,7.10
2023-04-28T10:32:07.883Z,7.80
2023-04-28T10:33:08.885Z,7.30
2023-04-28T10:34:09.388Z,7.70
2023-04-28T10:35:09.861Z,7.70
2023-04-28T10:36:10.761Z,7.60
2023-04-28T10:37:11.668Z,7.40
2023-04-28T10:38:12.665Z,7.50
2023-04-28T10:39:13.255Z,7.30
2023-04-28T10:40:15.407Z,7.90
2023-04-28T10:41:14.330Z,8.40
2023-04-28T10:42:15.242Z,8.00
2023-04-28T10:43:16.118Z,7.20
2023-04-28T10:44:17.010Z,7.60
2023-04-28T10:45:17.945Z,7.30
2023-04-28T10:46:18.904Z,7.30
2023-04-28T10:47:19.828Z,7.30
2023-04-28T10:48:20.702Z,8.00
2023-04-28T10:49:21.628Z,7.60
2023-04-28T10:50:29.366Z,7.70
2023-04-28T10:51:24.341Z,8.00
2023-04-28T10:52:24.210Z,8.10
2023-04-28T10:53:25.221Z,7.80
2023-04-28T10:54:25.870Z,7.60
2023-04-28T10:55:26.314Z,8.40
2023-04-28T10:56:27.207Z,7.40
2023-04-28T10:57:28.120Z,7.80
2023-04-28T10:58:29.006Z,8.50
2023-04-28T10:59:29.927Z,8.10
2023-04-28T11:00:30.805Z,7.80
2023-04-28T11:01:31.722Z,8.10
2023-04-28T11:02:32.754Z,8.20
2023-04-28T11:03:33.414Z,8.50
2023-04-28T11:04:34.133Z,8.20
2023-04-28T11:05:34.655Z,8.40
2023-04-28T11:06:35.098Z,8.80
2023-04-28T11:07:36.006Z,8.50
2023-04-28T11:08:36.953Z,8.80
2023-04-28T11:09:37.411Z,8.00
2023-04-28T11:10:38.293Z,8.30
2023-04-28T11:11:39.272Z,8.80
2023-04-28T11:12:40.147Z,8.60
2023-04-28T11:13:42.608Z,9.00
2023-04-28T11:14:41.650Z,8.80
2023-04-28T11:15:42.533Z,7.90
2023-04-28T11:16:43.475Z,8.60
2023-04-28T11:17:44.410Z,8.40
2023-04-28T11:18:45.294Z,8.20
2023-04-28T11:19:46.216Z,8.80
2023-04-28T11:20:47.107Z,8.70
2023-04-28T11:21:48.008Z,8.50
2023-04-28T11:22:48.882Z,8.70
2023-04-28T11:23:49.766Z,9.40
2023-04-28T11:24:52.977Z,10.10
2023-04-28T11:25:51.314Z,10.00
2023-04-28T11:26:52.210Z,9.50
2023-04-28T11:27:53.117Z,8.70
2023-04-28T11:28:53.997Z,9.20
2023-04-28T11:29:54.910Z,9.50
2023-04-28T11:30:55.810Z,9.10
2023-04-28T11:31:56.729Z,9.50
2023-04-28T11:32:57.660Z,9.20
2023-04-28T11:33:58.517Z,9.50
2023-04-28T11:34:59.451Z,9.40
2023-04-28T11:36:00.322Z,9.40
2023-04-28T11:37:01.273Z,8.80
2023-04-28T11:38:01.732Z,9.10
2023-04-28T11:39:02.633Z,9.00
2023-04-28T11:40:03.558Z,9.00
2023-04-28T11:41:04.435Z,8.40
2023-04-28T11:42:06.881Z,8.80
2023-04-28T11:43:07.240Z,9.10
2023-04-28T11:44:07.127Z,8.90
2023-04-28T11:45:08.053Z,9.30
2023-04-28T11:46:08.970Z,8.90
2023-04-28T11:47:09.903Z,8.50
2023-04-28T11:48:10.805Z,9.40
2023-04-28T11:49:11.673Z,9.20
2023-04-28T11:50:12.634Z,9.20
2023-04-28T11:57:05.884Z,9.10
2023-04-28T11:58:04.833Z,9.30
2023-04-28T11:59:05.876Z,9.00
2023-04-28T12:00:06.247Z,8.40
2023-04-28T12:01:07.290Z,8.70
2023-04-28T12:02:07.755Z,8.70
2023-04-28T12:03:08.803Z,8.60
2023-04-28T12:04:09.313Z,8.60
2023-04-28T12:05:11.312Z,9.10
2023-04-28T12:06:10.242Z,8.60
2023-04-28T12:07:11.164Z,9.10
2023-04-28T12:08:12.054Z,8.80
2023-04-28T12:09:12.925Z,8.70
2023-04-28T12:10:14.035Z,8.90
2023-04-28T12:11:14.510Z,9.50
2023-04-28T12:12:15.491Z,9.10
2023-04-28T12:13:16.223Z,8.80
2023-04-28T12:14:16.652Z,9.20
2023-04-28T12:16:06.053Z,9.00
2023-04-28T12:16:19.395Z,9.50
2023-04-28T12:17:18.884Z,9.20
2023-04-28T12:18:19.622Z,9.00
2023-04-28T12:19:20.583Z,9.50
2023-04-28T12:20:21.432Z,9.80
2023-04-28T12:21:22.325Z,9.50
2023-04-28T12:22:23.195Z,9.60
2023-04-28T12:23:24.137Z,9.70
2023-04-28T12:24:25.090Z,9.60
2023-04-28T12:25:25.476Z,9.00
2023-04-28T12:26:26.405Z,9.20
2023-04-28T12:27:27.418Z,9.90
2023-04-28T12:28:27.873Z,9.80
2023-04-28T12:29:28.903Z,9.70
2023-04-28T12:30:29.364Z,9.70
2023-04-28T12:31:30.319Z,9.70
2023-04-28T12:32:31.226Z,10.00
2023-04-28T12:33:33.026Z,9.70
2023-04-28T12:34:32.524Z,9.90
2023-04-28T12:35:33.411Z,9.30
2023-04-28T12:36:34.322Z,10.00
2023-04-28T12:37:35.327Z,9.10
2023-04-28T12:38:35.814Z,9.70
2023-04-28T12:39:39.476Z,10.00
2023-04-28T12:43:32.235Z,10.10
2023-04-28T12:44:33.220Z,9.80
2023-04-28T12:45:34.140Z,10.70
2023-04-28T12:46:34.641Z,10.40
2023-04-28T12:47:35.554Z,10.70
2023-04-28T12:48:36.562Z,10.30
2023-04-28T12:49:37.666Z,9.70
2023-04-28T12:50:38.018Z,10.00
2023-04-28T12:51:39.167Z,9.70
2023-04-28T12:52:39.553Z,9.30
2023-04-28T12:53:40.683Z,9.50
2023-04-28T12:54:41.174Z,10.00
2023-04-28T12:55:42.099Z,10.40
2023-04-28T12:56:43.015Z,9.60
2023-04-28T12:57:43.950Z,9.80
2023-04-28T12:58:55.504Z,9.80
2023-04-28T12:59:45.684Z,10.20
2023-04-28T13:00:46.223Z,10.30
2023-04-28T13:01:47.049Z,9.70
2023-04-28T13:02:48.018Z,10.40
2023-04-28T13:03:49.109Z,10.20
2023-04-28T13:04:49.967Z,10.70
2023-04-28T13:05:50.377Z,11.60
2023-04-28T13:06:51.287Z,11.20
2023-04-28T13:07:52.366Z,11.70
2023-04-28T13:08:52.757Z,12.20
2023-04-28T13:09:53.751Z,13.00
2023-04-28T13:10:54.194Z,12.60
2023-04-28T13:11:55.243Z,11.80
2023-04-28T13:12:55.831Z,11.90
2023-04-28T13:13:56.956Z,11.80
2023-04-28T13:14:56.951Z,11.80
2023-04-28T13:15:57.865Z,11.70
2023-04-28T13:16:58.746Z,12.00
2023-04-28T13:17:59.694Z,11.60
2023-04-28T13:19:00.616Z,12.10
2023-04-28T13:20:01.662Z,11.80
2023-04-28T13:21:02.143Z,12.60
2023-04-28T13:22:03.049Z,12.50
2023-04-28T13:23:03.952Z,13.50
2023-04-28T13:24:05.019Z,12.00
2023-04-28T13:25:05.454Z,12.10
2023-04-28T13:26:06.351Z,11.60
2023-04-28T13:27:07.328Z,12.60
2023-04-28T13:28:07.821Z,12.30
2023-04-28T13:29:08.678Z,11.90
2023-04-28T13:30:09.612Z,11.70
2023-04-28T13:31:10.545Z,12.10
2023-04-28T13:32:11.506Z,12.00
2023-04-28T13:33:12.391Z,12.30
2023-04-28T13:34:13.279Z,12.90
2023-04-28T13:35:14.203Z,12.80
2023-04-28T13:36:15.174Z,12.50
2023-04-28T13:37:16.153Z,13.00